createdAt,value
2023-06-30T00:01:34.771Z,8.10
2023-06-30T00:05:15.980Z,7.30
2023-06-30T00:08:11.081Z,9.60
2023-06-30T00:11:05.450Z,9.60
2023-06-30T00:14:22.988Z,8.90
2023-06-30T00:17:40.020Z,7.90
2023-06-30T00:22:19.197Z,8.10
2023-06-30T00:25:58.482Z,8.50
2023-06-30T00:29:37.685Z,9.50
2023-06-30T00:33:16.991Z,8.40
2023-06-30T00:36:56.142Z,8.60
2023-06-30T00:40:36.417Z,6.40
2023-06-30T00:44:15.686Z,10.30
2023-06-30T00:47:54.962Z,7.40
2023-06-30T00:51:34.226Z,8.50
2023-06-30T00:55:13.436Z,8.90
2023-06-30T00:58:43.176Z,7.40
2023-06-30T01:02:30.185Z,7.50
2023-06-30T01:05:55.922Z,10.20
2023-06-30T01:08:58.203Z,12.30
2023-06-30T01:11:52.913Z,8.20
2023-06-30T01:14:49.315Z,8.90
2023-06-30T01:17:48.174Z,8.00
2023-06-30T01:20:42.922Z,8.80
2023-06-30T01:23:35.742Z,8.50
2023-06-30T01:26:16.901Z,11.90
2023-06-30T01:29:11.970Z,8.30
2023-06-30T01:32:08.340Z,11.00
2023-06-30T01:35:03.572Z,8.70
2023-06-30T01:38:59.049Z,8.20
2023-06-30T01:43:37.387Z,9.40
2023-06-30T01:47:47.979Z,8.70
2023-06-30T01:51:34.661Z,10.10
2023-06-30T01:55:01.294Z,9.20
2023-06-30T01:58:18.281Z,10.20
2023-06-30T02:01:59.633Z,8.40
2023-06-30T02:05:41.921Z,9.40
2023-06-30T02:09:23.769Z,11.30
2023-06-30T02:12:41.711Z,9.00
2023-06-30T02:16:00.106Z,11.10
2023-06-30T02:18:56.166Z,8.20
2023-06-30T02:21:50.469Z,9.30
2023-06-30T02:24:44.713Z,10.00
2023-06-30T02:27:30.142Z,8.30
2023-06-30T02:33:19.006Z,9.30
2023-06-30T02:36:13.776Z,9.30
2023-06-30T02:38:59.251Z,12.00
2023-06-30T02:41:53.438Z,13.20
2023-06-30T02:44:47.616Z,12.60
2023-06-30T02:47:41.764Z,12.90
2023-06-30T02:50:24.350Z,12.10
2023-06-30T02:53:18.716Z,10.30
2023-06-30T02:56:12.813Z,12.10
2023-06-30T02:59:06.986Z,14.70
2023-06-30T03:02:01.619Z,11.70
2023-06-30T03:04:44.883Z,9.40
2023-06-30T03:07:28.523Z,11.70
2023-06-30T03:10:07.058Z,12.00
2023-06-30T03:13:01.329Z,10.20
2023-06-30T03:15:55.884Z,12.30
2023-06-30T03:18:49.823Z,14.00
2023-06-30T03:21:43.684Z,28.20
2023-06-30T03:24:37.610Z,11.30
2023-06-30T03:27:14.356Z,15.30
2023-06-30T03:30:10.302Z,9.80
2023-06-30T03:33:04.445Z,12.00
2023-06-30T03:35:58.890Z,18.10
2023-06-30T03:38:53.127Z,10.00
2023-06-30T03:41:47.249Z,10.80
2023-06-30T03:44:31.578Z,11.30
2023-06-30T03:47:25.982Z,12.80
2023-06-30T03:50:20.341Z,12.00
2023-06-30T03:52:57.521Z,10.70
2023-06-30T03:55:37.130Z,12.70
2023-06-30T03:58:22.642Z,10.40
2023-06-30T04:01:16.773Z,12.90
2023-06-30T04:04:10.931Z,11.60
2023-06-30T04:07:05.500Z,10.80
2023-06-30T04:09:59.343Z,13.20
2023-06-30T04:12:38.788Z,12.60
2023-06-30T04:15:33.027Z,12.30
2023-06-30T04:18:12.402Z,14.80
2023-06-30T04:21:06.537Z,13.80
2023-06-30T04:24:00.439Z,13.40
2023-06-30T04:26:46.052Z,14.90
2023-06-30T04:29:24.693Z,14.90
2023-06-30T04:32:02.449Z,14.10
2023-06-30T04:34:59.403Z,20.00
2023-06-30T04:37:54.058Z,16.20
2023-06-30T04:40:33.598Z,16.90
2023-06-30T04:43:16.677Z,18.10
2023-06-30T04:46:10.505Z,17.10
2023-06-30T04:48:56.993Z,18.00
2023-06-30T04:51:34.231Z,16.60
2023-06-30T04:54:28.338Z,15.90
2023-06-30T04:57:22.526Z,15.50
2023-06-30T05:00:07.873Z,16.40
2023-06-30T05:02:52.244Z,17.20
2023-06-30T05:05:37.641Z,16.50
2023-06-30T05:08:31.523Z,16.10
2023-06-30T05:11:12.524Z,16.50
2023-06-30T05:13:49.533Z,15.00
2023-06-30T05:16:27.053Z,18.10
2023-06-30T05:19:06.252Z,17.10
2023-06-30T05:21:45.700Z,13.90
2023-06-30T05:24:25.323Z,14.60
2023-06-30T05:27:05.035Z,17.80
2023-06-30T05:29:42.171Z,16.00
2023-06-30T05:32:21.948Z,14.90
2023-06-30T05:35:16.172Z,16.00
2023-06-30T05:38:10.469Z,13.00
2023-06-30T05:40:48.319Z,13.90
2023-06-30T05:43:42.110Z,13.70
2023-06-30T05:46:21.326Z,13.90
2023-06-30T05:49:15.764Z,14.60
2023-06-30T05:51:55.360Z,14.40
2023-06-30T05:54:49.637Z,13.50
2023-06-30T05:57:43.892Z,13.90
2023-06-30T06:00:29.832Z,11.90
2023-06-30T06:03:07.306Z,12.20
2023-06-30T06:06:01.522Z,13.20
2023-06-30T06:08:55.705Z,13.70
2023-06-30T06:11:41.204Z,14.10
2023-06-30T06:14:35.687Z,11.10
2023-06-30T06:17:12.207Z,12.50
2023-06-30T06:19:58.111Z,15.10
2023-06-30T06:22:52.011Z,10.40
2023-06-30T06:25:31.096Z,11.70
2023-06-30T06:28:25.289Z,12.40
2023-06-30T06:31:08.519Z,11.00
2023-06-30T06:34:02.729Z,11.00
2023-06-30T06:36:47.129Z,12.20
2023-06-30T06:39:40.927Z,15.80
2023-06-30T06:42:17.968Z,10.20
2023-06-30T06:44:56.894Z,10.90
2023-06-30T06:48:21.974Z,16.20
2023-06-30T06:50:57.009Z,11.10
2023-06-30T06:53:33.924Z,12.60
2023-06-30T06:56:08.526Z,9.40
2023-06-30T06:58:44.259Z,9.80
2023-06-30T07:01:19.984Z,9.80
2023-06-30T07:03:53.551Z,9.90
2023-06-30T07:06:29.473Z,8.30
2023-06-30T07:09:03.007Z,8.50
2023-06-30T07:11:36.517Z,7.70
2023-06-30T07:14:10.077Z,8.70
2023-06-30T07:17:03.831Z,10.00
2023-06-30T07:19:57.754Z,6.60
2023-06-30T07:22:52.187Z,7.80
2023-06-30T07:25:46.632Z,10.80
2023-06-30T07:28:23.505Z,7.80
2023-06-30T07:31:18.222Z,10.80
2023-06-30T07:34:03.447Z,8.80
2023-06-30T07:36:57.343Z,6.30
2023-06-30T07:39:33.122Z,7.00
2023-06-30T07:42:27.094Z,8.20
2023-06-30T07:45:21.610Z,6.80
2023-06-30T07:48:15.497Z,6.60
2023-06-30T07:51:11.900Z,8.60
2023-06-30T07:54:05.611Z,7.10
2023-06-30T07:56:59.402Z,7.70
2023-06-30T07:59:53.238Z,6.60
2023-06-30T08:02:47.499Z,7.60
2023-06-30T08:05:41.733Z,6.40
2023-06-30T08:08:36.737Z,7.70
2023-06-30T08:11:31.815Z,7.40
2023-06-30T08:14:26.008Z,6.30
2023-06-30T08:17:21.807Z,5.00
2023-06-30T08:20:17.357Z,7.80
2023-06-30T08:22:56.665Z,6.40
2023-06-30T08:25:33.485Z,5.80
2023-06-30T08:28:27.236Z,6.20
2023-06-30T08:31:22.231Z,9.30
2023-06-30T08:34:06.711Z,6.80
2023-06-30T08:36:49.849Z,7.10
2023-06-30T08:39:26.034Z,4.20
2023-06-30T08:42:05.686Z,6.50
2023-06-30T08:44:51.201Z,8.90
2023-06-30T08:47:36.903Z,5.90
2023-06-30T08:50:31.466Z,5.80
2023-06-30T08:53:15.665Z,5.50
2023-06-30T08:56:11.920Z,5.90
2023-06-30T08:59:06.233Z,6.70
2023-06-30T09:02:01.208Z,10.40
2023-06-30T09:04:38.788Z,6.30
2023-06-30T09:07:40.977Z,4.20
2023-06-30T09:10:38.338Z,5.60
2023-06-30T09:13:32.770Z,5.40
2023-06-30T09:16:20.014Z,5.30
2023-06-30T09:19:14.988Z,5.30
2023-06-30T09:21:54.702Z,6.90
2023-06-30T09:24:31.452Z,6.00
2023-06-30T09:27:14.432Z,7.00
2023-06-30T09:30:10.164Z,7.70
2023-06-30T09:33:04.693Z,7.80
2023-06-30T09:36:01.473Z,7.60
2023-06-30T09:39:01.371Z,8.30
2023-06-30T09:41:56.370Z,6.70
2023-06-30T09:44:54.133Z,6.40
2023-06-30T09:47:54.296Z,6.90
2023-06-30T09:50:39.377Z,8.60
2023-06-30T09:53:39.052Z,8.40
2023-06-30T09:56:33.656Z,10.60
2023-06-30T09:59:29.707Z,9.40
2023-06-30T10:02:06.167Z,10.80
2023-06-30T10:05:00.135Z,6.90
2023-06-30T10:07:54.024Z,10.90
2023-06-30T10:10:28.153Z,5.80
2023-06-30T10:13:03.860Z,4.90
2023-06-30T10:15:39.006Z,8.40
2023-06-30T10:18:15.208Z,7.30
2023-06-30T10:20:51.616Z,7.20
2023-06-30T10:23:28.327Z,6.90
2023-06-30T10:26:03.863Z,8.70
2023-06-30T10:28:37.987Z,7.10
2023-06-30T10:31:11.969Z,6.40
2023-06-30T10:33:46.010Z,10.60
2023-06-30T10:36:40.547Z,6.80
2023-06-30T10:39:34.985Z,6.30
2023-06-30T10:42:37.762Z,6.30
2023-06-30T10:45:37.616Z,6.10
2023-06-30T10:48:32.014Z,7.60
2023-06-30T10:51:35.802Z,5.40
2023-06-30T10:54:31.317Z,5.20
2023-06-30T10:57:29.584Z,7.40
2023-06-30T11:00:30.631Z,8.20
2023-06-30T11:03:24.525Z,7.20
2023-06-30T11:06:25.134Z,6.30
2023-06-30T11:09:19.888Z,8.70
2023-06-30T11:12:16.532Z,8.70
2023-06-30T11:15:25.658Z,6.50
2023-06-30T11:18:23.606Z,6.20
2023-06-30T11:21:17.711Z,6.00
2023-06-30T11:24:19.651Z,8.60
2023-06-30T11:27:13.517Z,7.20
2023-06-30T11:30:08.924Z,8.70
2023-06-30T11:33:03.867Z,6.90
2023-06-30T11:36:00.599Z,11.90
2023-06-30T11:38:55.165Z,8.20
2023-06-30T11:41:49.209Z,8.60
2023-06-30T11:44:37.096Z,8.30
2023-06-30T11:47:31.455Z,9.20
2023-06-30T11:50:13.283Z,7.50
2023-06-30T11:53:07.168Z,8.50
2023-06-30T11:56:03.049Z,9.40
2023-06-30T12:01:24.079Z,9.60
2023-06-30T12:04:39.310Z,7.50
2023-06-30T12:07:34.741Z,7.70
2023-06-30T12:10:21.222Z,8.60
2023-06-30T12:13:15.256Z,6.40
2023-06-30T12:16:10.020Z,8.30
2023-06-30T12:18:49.889Z,6.30
2023-06-30T12:21:57.773Z,10.90
2023-06-30T12:24:57.544Z,7.50
2023-06-30T12:27:52.581Z,8.30
2023-06-30T12:30:49.032Z,8.70
2023-06-30T12:33:25.885Z,6.50
2023-06-30T12:36:05.961Z,6.30
2023-06-30T12:38:45.203Z,4.80
2023-06-30T12:41:34.325Z,5.80
2023-06-30T12:44:28.409Z,5.30
2023-06-30T12:47:22.323Z,6.80
2023-06-30T12:50:06.010Z,7.60
2023-06-30T12:53:03.086Z,4.80
2023-06-30T12:55:42.225Z,5.90
2023-06-30T12:58:36.058Z,4.40
2023-06-30T13:01:30.361Z,8.10
2023-06-30T13:04:06.853Z,6.20
2023-06-30T13:07:01.258Z,8.30
2023-06-30T13:09:55.449Z,6.40
2023-06-30T13:12:49.193Z,5.00
2023-06-30T13:15:43.396Z,7.90
2023-06-30T13:18:37.356Z,6.30
2023-06-30T13:21:21.590Z,7.80
2023-06-30T13:23:58.448Z,7.10
2023-06-30T13:26:36.147Z,6.40
2023-06-30T13:29:13.635Z,8.00
2023-06-30T13:32:08.106Z,7.90
2023-06-30T13:34:48.583Z,6.50
2023-06-30T13:37:42.770Z,5.70
2023-06-30T13:40:36.501Z,5.00
2023-06-30T13:43:10.218Z,5.70
2023-06-30T13:46:04.345Z,5.40
2023-06-30T13:48:58.430Z,7.20
2023-06-30T13:51:37.634Z,6.50
2023-06-30T13:54:21.733Z,12.50
2023-06-30T13:57:15.580Z,6.50
2023-06-30T13:59:55.030Z,7.60
2023-06-30T14:02:37.196Z,8.90
2023-06-30T14:05:20.032Z,4.90
2023-06-30T14:08:13.824Z,5.30
2023-06-30T14:11:00.026Z,6.00
2023-06-30T14:13:55.461Z,6.20
2023-06-30T14:16:49.485Z,8.10
2023-06-30T14:19:34.794Z,4.30
2023-06-30T14:22:13.717Z,5.40
2023-06-30T14:24:50.441Z,5.60
2023-06-30T14:27:24.090Z,8.00
2023-06-30T14:30:03.761Z,9.70
2023-06-30T14:32:58.219Z,8.50
2023-06-30T14:35:52.055Z,10.10
2023-06-30T14:38:35.119Z,32.50
2023-06-30T14:41:28.806Z,21.10
2023-06-30T14:44:23.075Z,23.50
2023-06-30T14:47:01.213Z,27.20
2023-06-30T14:49:37.959Z,25.60
2023-06-30T14:52:17.084Z,23.60
2023-06-30T14:54:56.421Z,21.50
2023-06-30T14:57:51.192Z,22.00
2023-06-30T15:00:44.992Z,13.60
2023-06-30T15:03:39.378Z,18.90
2023-06-30T15:06:24.416Z,14.40
2023-06-30T15:09:08.787Z,17.20
2023-06-30T15:11:59.265Z,16.20
2023-06-30T15:14:44.568Z,11.80
2023-06-30T15:17:38.435Z,13.60
2023-06-30T15:20:21.259Z,12.80
2023-06-30T15:23:15.032Z,12.10
2023-06-30T15:26:08.959Z,11.10
2023-06-30T15:28:45.506Z,11.10
2023-06-30T15:31:40.765Z,8.50
2023-06-30T15:34:17.843Z,9.00
2023-06-30T15:37:11.696Z,10.80
2023-06-30T15:40:06.054Z,8.90
2023-06-30T15:42:48.305Z,7.80
2023-06-30T15:45:27.517Z,7.90
2023-06-30T15:48:21.644Z,7.20
2023-06-30T15:51:16.449Z,7.30
2023-06-30T15:53:55.567Z,8.40
2023-06-30T15:56:35.217Z,7.70
2023-06-30T15:59:11.945Z,6.30
2023-06-30T16:01:56.074Z,5.90
2023-06-30T16:04:39.376Z,6.60
2023-06-30T16:07:18.647Z,6.20
2023-06-30T16:10:13.965Z,18.60
2023-06-30T16:12:51.112Z,5.70
2023-06-30T16:15:45.699Z,6.10
2023-06-30T16:18:30.842Z,7.40
2023-06-30T16:21:15.120Z,8.90
2023-06-30T16:23:58.251Z,8.30
2023-06-30T16:26:37.313Z,4.70
2023-06-30T16:29:38.205Z,6.50
2023-06-30T16:32:22.904Z,5.20
2023-06-30T16:35:17.177Z,6.60
2023-06-30T16:38:02.491Z,7.90
2023-06-30T16:40:38.983Z,9.30
2023-06-30T16:43:33.137Z,6.90
2023-06-30T16:46:16.020Z,8.00
2023-06-30T16:49:09.773Z,6.90
2023-06-30T16:51:53.675Z,5.30
2023-06-30T16:54:32.536Z,9.40
2023-06-30T16:57:15.253Z,6.10
2023-06-30T17:00:11.854Z,6.90
2023-06-30T17:02:56.678Z,6.50
2023-06-30T17:05:36.367Z,5.50
2023-06-30T17:08:21.198Z,5.30
2023-06-30T17:11:15.293Z,5.70
2023-06-30T17:13:54.481Z,5.50
2023-06-30T17:16:31.311Z,5.70
2023-06-30T17:19:10.289Z,8.10
2023-06-30T17:22:04.479Z,4.80
2023-06-30T17:24:48.937Z,6.10
2023-06-30T17:27:42.765Z,6.50
2023-06-30T17:30:36.703Z,5.40
2023-06-30T17:33:21.823Z,5.60
2023-06-30T17:36:07.506Z,7.10
2023-06-30T17:39:02.922Z,6.10
2023-06-30T17:41:41.933Z,5.00
2023-06-30T17:44:37.713Z,4.90
2023-06-30T17:47:22.806Z,5.80
2023-06-30T17:50:18.346Z,4.70
2023-06-30T17:52:57.938Z,5.90
2023-06-30T17:55:37.054Z,10.20
2023-06-30T17:58:14.393Z,12.80
2023-06-30T18:00:50.730Z,9.90
2023-06-30T18:03:35.673Z,8.20
2023-06-30T18:06:30.377Z,9.40
2023-06-30T18:09:09.858Z,7.00
2023-06-30T18:11:45.773Z,5.80
2023-06-30T18:14:40.651Z,7.50
2023-06-30T18:17:25.032Z,6.30
2023-06-30T18:20:19.091Z,6.70
2023-06-30T18:23:12.886Z,6.50
2023-06-30T18:26:07.454Z,5.80
2023-06-30T18:29:01.655Z,7.20
2023-06-30T18:31:59.175Z,6.90
2023-06-30T18:34:54.403Z,6.10
2023-06-30T18:37:38.065Z,6.50
2023-06-30T18:40:31.970Z,7.00
2023-06-30T18:43:16.217Z,6.10
2023-06-30T18:46:00.373Z,8.10
2023-06-30T18:48:38.170Z,6.30
2023-06-30T18:51:21.519Z,5.50
2023-06-30T18:54:15.639Z,5.40
2023-06-30T18:56:58.889Z,7.30
2023-06-30T18:59:44.391Z,8.90
2023-06-30T19:02:32.266Z,6.10
2023-06-30T19:05:12.572Z,6.20
2023-06-30T19:07:52.003Z,6.90
2023-06-30T19:10:47.231Z,5.90
2023-06-30T19:13:24.411Z,6.80
2023-06-30T19:16:18.348Z,7.60
2023-06-30T19:19:12.582Z,7.30
2023-06-30T19:22:07.350Z,6.50
2023-06-30T19:25:01.225Z,7.60
2023-06-30T19:27:40.831Z,6.90
2023-06-30T19:30:28.221Z,8.00
2023-06-30T19:33:29.143Z,6.40
2023-06-30T19:36:14.391Z,7.40
2023-06-30T19:39:08.727Z,7.90
2023-06-30T19:41:46.363Z,9.40
2023-06-30T19:44:40.952Z,12.80
2023-06-30T19:47:35.505Z,8.10
2023-06-30T19:50:16.241Z,9.40
2023-06-30T19:53:01.688Z,7.00
2023-06-30T19:55:46.190Z,6.00
2023-06-30T19:58:29.890Z,7.00
2023-06-30T20:01:08.982Z,5.30
2023-06-30T20:03:51.476Z,8.10
2023-06-30T20:06:45.806Z,5.60
2023-06-30T20:09:39.856Z,6.40
2023-06-30T20:12:33.709Z,6.20
2023-06-30T20:15:14.346Z,6.20
2023-06-30T20:18:10.084Z,6.90
2023-06-30T20:21:05.431Z,5.70
2023-06-30T20:23:42.513Z,6.20
2023-06-30T20:26:26.894Z,6.60
2023-06-30T20:29:06.279Z,9.60
2023-06-30T20:31:46.024Z,6.00
2023-06-30T20:34:41.724Z,7.80
2023-06-30T20:37:21.095Z,6.40
2023-06-30T20:40:16.218Z,6.50
2023-06-30T20:42:59.271Z,6.50
2023-06-30T20:45:49.563Z,7.70
2023-06-30T20:48:34.950Z,8.60
2023-06-30T20:51:14.085Z,7.80
2023-06-30T20:53:53.730Z,7.40
2023-06-30T20:56:34.013Z,7.30
2023-06-30T20:59:10.954Z,8.70
2023-06-30T21:01:51.012Z,7.70
2023-06-30T21:04:28.019Z,7.20
2023-06-30T21:07:05.576Z,6.50
2023-06-30T21:09:59.433Z,7.30
2023-06-30T21:12:43.475Z,8.20
2023-06-30T21:15:37.765Z,7.50
2023-06-30T21:18:22.623Z,6.00
2023-06-30T21:23:48.982Z,5.80
2023-06-30T21:26:28.079Z,8.40
2023-06-30T21:29:04.983Z,7.00
2023-06-30T21:31:49.129Z,6.70
2023-06-30T21:34:26.132Z,6.80
2023-06-30T21:37:20.710Z,7.70
2023-06-30T21:40:02.244Z,6.30
2023-06-30T21:42:57.472Z,6.30
2023-06-30T21:45:51.896Z,6.40
2023-06-30T21:48:37.297Z,8.20
2023-06-30T21:51:16.554Z,5.30
2023-06-30T21:54:08.044Z,6.00
2023-06-30T21:57:01.942Z,7.80
2023-06-30T21:59:56.331Z,6.90
2023-06-30T22:02:48.078Z,6.40
2023-06-30T22:05:42.271Z,6.60
2023-06-30T22:08:38.893Z,5.80
2023-06-30T22:11:32.860Z,7.40
2023-06-30T22:14:27.656Z,5.40
2023-06-30T22:17:22.127Z,11.70
2023-06-30T22:20:03.127Z,6.50
2023-06-30T22:22:46.291Z,5.90
2023-06-30T22:25:40.767Z,7.40
2023-06-30T22:28:14.499Z,8.80
2023-06-30T22:31:08.450Z,5.70
2023-06-30T22:33:53.394Z,7.00
2023-06-30T22:36:44.888Z,6.20
2023-06-30T22:40:04.882Z,7.20
2023-06-30T22:42:58.441Z,7.50
2023-06-30T22:45:52.491Z,6.60
2023-06-30T22:48:46.434Z,7.80
2023-06-30T22:51:29.496Z,6.80
2023-06-30T22:54:23.810Z,8.20
2023-06-30T22:57:18.022Z,6.30
2023-06-30T22:59:55.113Z,5.50
2023-06-30T23:02:49.079Z,7.50
2023-06-30T23:05:43.122Z,8.10
2023-06-30T23:08:36.985Z,5.20
2023-06-30T23:11:30.943Z,7.70
2023-06-30T23:14:25.335Z,7.40
2023-06-30T23:17:25.825Z,5.80
2023-06-30T23:20:03.846Z,8.30
2023-06-30T23:22:50.948Z,7.00
2023-06-30T23:25:45.522Z,5.80
2023-06-30T23:28:30.124Z,9.30
2023-06-30T23:31:22.553Z,6.90
2023-06-30T23:34:03.414Z,7.10
2023-06-30T23:36:57.527Z,7.00
2023-06-30T23:39:37.969Z,6.00
2023-06-30T23:42:31.777Z,6.10
2023-06-30T23:45:16.107Z,6.90
2023-06-30T23:47:53.857Z,6.40
2023-06-30T23:50:34.835Z,7.80
2023-06-30T23:53:17.582Z,6.90
2023-06-30T23:56:01.884Z,7.20
2023-06-30T23:58:58.030Z,7.10
